Bryce Canyon Airport Bryce Canyon US
ICAO: KBCE
IATA: BCE
Category: Medium
Scheduled Services: No

Elevation: 7590 ft
TransAlt. 18000 ft.

Airport Communications:
ASOS:135.475
CEDAR CITY RDO:122.2
CTAF/UNICOM:122.8

KBCE Zoom In..

Runways:

(A) RW 03 length 7395 ft width 75 ft
---- / hdg 33

(B) RW 21 length 7395 ft width 75 ft
---- / hdg 213

Location; KBCE
Day. 11 / Time. 11.53 Zulu
* Altimeter: 30.31
* Temperature: 07° c. 44.6°f.
* Wind from: 270° Speed 10 kn.
Dewpoint: -07° c.
Visibility: 10 Statute Miles.
Clouds: Clear (automated report).

KBCE 111153Z AUTO 27010KT 10SM CLR 07/M07 A3031 RMK AO2 SLP145 T00721072 10094 20039 58000

Going to: --> -->


Wind From 270°
Speed 10 kn.

 
 
jpsmedia worldairports.se 2020   terms of use